createdAt,value
2019-01-25T00:01:07.468Z,-1.27
2019-01-25T00:02:07.474Z,-1.27
2019-01-25T00:04:00.365Z,-1.22
2019-01-25T00:05:00.360Z,-1.27
2019-01-25T00:06:53.245Z,-1.30
2019-01-25T00:07:53.252Z,-1.28
2019-01-25T00:09:46.151Z,-1.20
2019-01-25T00:10:46.151Z,-1.27
2019-01-25T00:12:39.032Z,-1.27
2019-01-25T00:13:39.038Z,-1.25
2019-01-25T00:15:31.931Z,-1.25
2019-01-25T00:16:31.929Z,-1.28
2019-01-25T00:18:24.834Z,-1.20
2019-01-25T00:19:24.831Z,-1.31
2019-01-25T00:21:17.700Z,-1.10
2019-01-25T00:22:17.707Z,-1.12
2019-01-25T00:24:10.602Z,-1.13
2019-01-25T00:25:10.600Z,-1.25
2019-01-25T00:27:03.513Z,-1.16
2019-01-25T00:28:03.519Z,-1.22
2019-01-25T00:29:56.409Z,-1.25
2019-01-25T00:30:56.409Z,-1.17
2019-01-25T00:32:49.292Z,-1.22
2019-01-25T00:33:49.299Z,-1.22
2019-01-25T00:35:42.190Z,-1.23
2019-01-25T00:36:42.190Z,-1.22
2019-01-25T00:38:35.072Z,-1.13
2019-01-25T00:39:35.080Z,-1.31
2019-01-25T00:41:27.968Z,-1.27
2019-01-25T00:42:27.967Z,-1.23
2019-01-25T00:44:20.864Z,-1.22
2019-01-25T00:45:20.864Z,-1.27
2019-01-25T00:47:13.752Z,-1.27
2019-01-25T00:48:13.755Z,-1.25
2019-01-25T00:50:06.647Z,-1.22
2019-01-25T00:51:06.645Z,-1.20
2019-01-25T00:52:59.531Z,-1.15
2019-01-25T00:53:59.536Z,-1.17
2019-01-25T00:55:52.430Z,-1.19
2019-01-25T00:56:52.425Z,-1.23
2019-01-25T00:58:45.314Z,-1.16
2019-01-25T00:59:45.324Z,-1.30
2019-01-25T01:01:38.214Z,-1.15
2019-01-25T01:02:38.211Z,-1.13
2019-01-25T01:04:31.097Z,-1.12
2019-01-25T01:05:31.103Z,-1.10
2019-01-25T01:07:23.999Z,-1.09
2019-01-25T01:08:23.996Z,-1.16
2019-01-25T01:10:16.887Z,-1.13
2019-01-25T01:11:16.885Z,-1.22
2019-01-25T01:13:09.767Z,-1.25
2019-01-25T01:14:09.780Z,-1.27
2019-01-25T01:16:02.670Z,-1.23
2019-01-25T01:17:02.667Z,-1.28
2019-01-25T01:18:55.550Z,-1.27
2019-01-25T01:19:55.557Z,-1.34
2019-01-25T01:21:48.453Z,-1.34
2019-01-25T01:22:48.449Z,-1.31
2019-01-25T01:24:41.333Z,-1.40
2019-01-25T01:25:41.337Z,-1.34
2019-01-25T01:27:34.231Z,-1.38
2019-01-25T01:28:34.228Z,-1.38
2019-01-25T01:30:27.112Z,-1.43
2019-01-25T01:31:27.118Z,-1.38
2019-01-25T01:33:20.013Z,-1.34
2019-01-25T01:34:20.007Z,-1.37
2019-01-25T01:36:12.898Z,-1.22
2019-01-25T01:37:12.898Z,-1.25
2019-01-25T01:39:05.781Z,-1.20
2019-01-25T01:40:05.795Z,-1.23
2019-01-25T01:41:58.686Z,-1.23
2019-01-25T01:42:58.682Z,-1.20
2019-01-25T01:44:51.563Z,-1.16
2019-01-25T01:45:51.568Z,-1.34
2019-01-25T01:47:44.466Z,-1.25
2019-01-25T01:48:44.464Z,-1.23
2019-01-25T01:50:37.367Z,-1.27
2019-01-25T01:51:37.353Z,-1.25
2019-01-25T01:53:30.238Z,-1.23
2019-01-25T01:54:30.243Z,-1.20
2019-01-25T01:56:23.136Z,-1.22
2019-01-25T01:57:23.135Z,-1.30
2019-01-25T01:59:16.018Z,-1.23
2019-01-25T02:00:16.026Z,-1.37
2019-01-25T02:02:08.919Z,-1.34
2019-01-25T02:03:08.921Z,-1.41
2019-01-25T02:05:01.800Z,-1.38
2019-01-25T02:06:01.807Z,-1.41
2019-01-25T02:07:54.700Z,-1.43
2019-01-25T02:08:54.695Z,-1.46
2019-01-25T02:10:47.610Z,-1.46
2019-01-25T02:11:47.597Z,-1.54
2019-01-25T02:13:40.477Z,-1.49
2019-01-25T02:14:40.484Z,-1.41
2019-01-25T02:16:33.378Z,-1.54
2019-01-25T02:17:33.376Z,-1.46
2019-01-25T02:19:26.259Z,-1.46
2019-01-25T02:20:26.263Z,-1.45
2019-01-25T02:22:19.153Z,-1.45
2019-01-25T02:23:19.154Z,-1.38
2019-01-25T02:25:12.038Z,-1.37
2019-01-25T02:26:12.047Z,-1.41
2019-01-25T02:28:04.936Z,-1.23
2019-01-25T02:29:04.933Z,-1.28
2019-01-25T02:30:57.897Z,-1.23
2019-01-25T02:31:57.823Z,-1.25
2019-01-25T02:33:50.710Z,-1.23
2019-01-25T02:34:50.715Z,-1.23
2019-01-25T02:36:43.660Z,-1.17
2019-01-25T02:37:43.602Z,-1.30
2019-01-25T02:39:36.502Z,-1.27
2019-01-25T02:40:38.989Z,-1.37
2019-01-25T02:42:30.431Z,-1.27
2019-01-25T02:43:30.390Z,-1.28
2019-01-25T02:45:23.274Z,-1.23
2019-01-25T02:46:23.282Z,-1.22
2019-01-25T02:48:16.172Z,-1.17
2019-01-25T02:49:16.173Z,-1.10
2019-01-25T02:51:09.053Z,-1.12
2019-01-25T02:52:09.105Z,-1.16
2019-01-25T02:54:01.955Z,-1.16
2019-01-25T02:55:02.017Z,-1.12
2019-01-25T02:56:54.849Z,-1.15
2019-01-25T02:57:54.851Z,-1.15
2019-01-25T02:59:47.732Z,-1.20
2019-01-25T03:00:47.738Z,-1.27
2019-01-25T03:02:40.627Z,-1.20
2019-01-25T03:03:40.627Z,-1.22
2019-01-25T03:05:33.512Z,-1.12
2019-01-25T03:06:33.517Z,-1.17
2019-01-25T03:08:26.408Z,-1.17
2019-01-25T03:09:26.409Z,-1.22
2019-01-25T03:11:19.294Z,-1.38
2019-01-25T03:12:19.305Z,-1.33
2019-01-25T03:14:12.193Z,-1.38
2019-01-25T03:15:12.192Z,-1.38
2019-01-25T03:17:05.085Z,-1.40
2019-01-25T03:18:05.081Z,-1.30
2019-01-25T03:19:57.968Z,-1.33
2019-01-25T03:20:57.975Z,-1.35
2019-01-25T03:22:50.869Z,-1.38
2019-01-25T03:23:50.866Z,-1.35
2019-01-25T03:25:43.749Z,-1.31
2019-01-25T03:26:43.760Z,-1.37
2019-01-25T03:28:36.656Z,-1.34
2019-01-25T03:29:36.654Z,-1.40
2019-01-25T03:31:29.542Z,-1.35
2019-01-25T03:32:29.567Z,-1.33
2019-01-25T03:34:22.438Z,-1.38
2019-01-25T03:35:22.438Z,-1.33
2019-01-25T03:37:15.320Z,-1.34
2019-01-25T03:38:15.327Z,-1.28
2019-01-25T03:40:08.220Z,-1.35
2019-01-25T03:41:08.216Z,-1.38
2019-01-25T03:43:01.112Z,-1.22
2019-01-25T03:44:01.176Z,-1.20
2019-01-25T03:45:54.002Z,-1.27
2019-01-25T03:46:53.998Z,-1.17
2019-01-25T03:48:46.888Z,-1.19
2019-01-25T03:49:46.886Z,-1.13
2019-01-25T03:51:39.772Z,-1.10
2019-01-25T03:52:39.789Z,-1.13
2019-01-25T03:54:32.680Z,-1.20
2019-01-25T03:55:32.670Z,-1.16
2019-01-25T03:57:25.554Z,-1.13
2019-01-25T03:58:25.560Z,-1.27
2019-01-25T04:00:18.453Z,-1.30
2019-01-25T04:01:18.449Z,-1.31
2019-01-25T04:03:11.334Z,-1.33
2019-01-25T04:04:11.344Z,-1.38
2019-01-25T04:06:04.240Z,-1.37
2019-01-25T04:07:04.237Z,-1.38
2019-01-25T04:08:57.138Z,-1.51
2019-01-25T04:09:57.174Z,-1.55
2019-01-25T04:11:50.018Z,-1.43
2019-01-25T04:12:50.015Z,-1.49
2019-01-25T04:14:42.910Z,-1.37
2019-01-25T04:15:42.909Z,-1.41
2019-01-25T04:17:35.795Z,-1.33
2019-01-25T04:18:35.802Z,-1.34
2019-01-25T04:20:28.696Z,-1.33
2019-01-25T04:21:28.691Z,-1.34
2019-01-25T04:23:21.578Z,-1.41
2019-01-25T04:24:21.577Z,-1.37
2019-01-25T04:26:14.471Z,-1.28
2019-01-25T04:27:14.467Z,-1.27
2019-01-25T04:29:07.350Z,-1.33
2019-01-25T04:30:07.362Z,-1.28
2019-01-25T04:32:00.247Z,-1.30
2019-01-25T04:33:00.257Z,-1.30
2019-01-25T04:34:53.137Z,-1.27
2019-01-25T04:35:53.134Z,-1.30
2019-01-25T04:37:46.023Z,-1.25
2019-01-25T04:38:46.028Z,-1.25
2019-01-25T04:40:38.919Z,-1.17
2019-01-25T04:41:38.991Z,-1.15
2019-01-25T04:43:31.798Z,-1.28
2019-01-25T04:44:31.804Z,-1.25
2019-01-25T04:46:24.697Z,-1.15
2019-01-25T04:47:24.692Z,-1.19
2019-01-25T04:49:17.579Z,-1.17
2019-01-25T04:50:19.259Z,-1.15
2019-01-25T04:52:10.481Z,-1.13
2019-01-25T04:53:10.476Z,-1.09
2019-01-25T04:55:03.373Z,-1.13
2019-01-25T04:56:03.369Z,-1.05
2019-01-25T04:57:56.251Z,-1.16
2019-01-25T04:58:56.259Z,-1.15
2019-01-25T05:00:49.153Z,-1.12
2019-01-25T05:01:49.168Z,-1.13
2019-01-25T05:03:42.032Z,-1.10
2019-01-25T05:04:42.041Z,-1.10
2019-01-25T05:06:34.930Z,-1.02
2019-01-25T05:07:34.928Z,-0.98
2019-01-25T05:09:27.814Z,-0.92
2019-01-25T05:10:27.821Z,-0.99
2019-01-25T05:12:20.713Z,-0.91
2019-01-25T05:13:20.725Z,-0.98
2019-01-25T05:15:13.602Z,-0.95
2019-01-25T05:16:13.602Z,-0.97
2019-01-25T05:18:06.497Z,-0.92
2019-01-25T05:19:06.492Z,-0.99
2019-01-25T05:20:59.528Z,-1.05
2019-01-25T05:21:59.530Z,-0.99
2019-01-25T05:23:52.413Z,-1.02
2019-01-25T05:24:52.421Z,-0.95
2019-01-25T05:26:45.313Z,-0.89
2019-01-25T05:27:45.312Z,-0.94
2019-01-25T05:29:38.199Z,-0.89
2019-01-25T05:30:38.202Z,-1.05
2019-01-25T05:32:31.091Z,-1.01
2019-01-25T05:33:31.089Z,-0.99
2019-01-25T05:35:23.988Z,-1.01
2019-01-25T05:36:23.986Z,-0.89
2019-01-25T05:38:16.870Z,-0.94
2019-01-25T05:39:16.878Z,-0.86
2019-01-25T05:41:10.773Z,-0.91
2019-01-25T05:42:10.772Z,-0.86
2019-01-25T05:44:03.667Z,-0.92
2019-01-25T05:45:03.750Z,-0.92
2019-01-25T05:46:56.565Z,-0.92
2019-01-25T05:47:56.565Z,-0.89
2019-01-25T05:49:49.445Z,-0.94
2019-01-25T05:50:49.453Z,-0.86
2019-01-25T05:52:42.348Z,-0.91
2019-01-25T05:53:42.346Z,-0.92
2019-01-25T05:55:35.226Z,-0.95
2019-01-25T05:56:35.237Z,-0.95
2019-01-25T05:58:28.128Z,-0.85
2019-01-25T05:59:28.125Z,-0.89
2019-01-25T06:01:21.019Z,-0.91
2019-01-25T06:02:21.016Z,-0.78
2019-01-25T06:04:13.900Z,-0.83
2019-01-25T06:05:13.907Z,-0.89
2019-01-25T06:07:06.801Z,-0.92
2019-01-25T06:08:06.798Z,-0.86
2019-01-25T06:09:59.683Z,-0.94
2019-01-25T06:10:59.689Z,-0.94
2019-01-25T06:12:52.582Z,-0.94
2019-01-25T06:13:52.580Z,-0.92
2019-01-25T06:15:45.463Z,-1.01
2019-01-25T06:16:45.470Z,-0.86
2019-01-25T06:18:38.361Z,-0.92
2019-01-25T06:19:38.361Z,-0.99
2019-01-25T06:21:31.244Z,-0.92
2019-01-25T06:22:31.250Z,-0.91
2019-01-25T06:24:24.142Z,-0.92
2019-01-25T06:25:24.142Z,-0.98
2019-01-25T06:27:17.030Z,-1.05
2019-01-25T06:28:17.031Z,-0.99
2019-01-25T06:30:09.915Z,-1.04
2019-01-25T06:31:09.921Z,-0.99
2019-01-25T06:33:02.810Z,-1.04
2019-01-25T06:34:02.810Z,-0.99
2019-01-25T06:35:55.693Z,-0.97
2019-01-25T06:36:55.699Z,-0.95
2019-01-25T06:38:48.594Z,-0.99
2019-01-25T06:39:48.594Z,-0.97
2019-01-25T06:41:44.216Z,-0.97
2019-01-25T06:42:41.484Z,-1.05
2019-01-25T06:44:34.376Z,-1.01
2019-01-25T06:45:34.375Z,-1.02
2019-01-25T06:47:27.267Z,-0.99
2019-01-25T06:48:27.271Z,-1.12
2019-01-25T06:50:20.158Z,-1.05
2019-01-25T06:51:20.165Z,-1.09
2019-01-25T06:53:13.059Z,-0.95
2019-01-25T06:54:13.088Z,-0.97
2019-01-25T06:56:05.949Z,-1.09
2019-01-25T06:57:05.944Z,-1.09
2019-01-25T06:58:58.834Z,-1.10
2019-01-25T06:59:58.833Z,-1.16
2019-01-25T07:01:51.719Z,-1.25
2019-01-25T07:02:51.725Z,-1.16
2019-01-25T07:04:44.614Z,-1.15
2019-01-25T07:05:44.613Z,-1.12
2019-01-25T07:07:37.499Z,-1.16
2019-01-25T07:08:37.505Z,-1.12
2019-01-25T07:10:30.479Z,-1.13
2019-01-25T07:11:30.395Z,-1.09
2019-01-25T07:13:23.289Z,-1.16
2019-01-25T07:14:23.286Z,-1.16
2019-01-25T07:16:16.202Z,-1.13
2019-01-25T07:17:16.214Z,-1.12
2019-01-25T07:19:09.104Z,-1.10
2019-01-25T07:20:09.101Z,-1.10
2019-01-25T07:22:01.985Z,-1.04
2019-01-25T07:23:01.989Z,-0.98
2019-01-25T07:24:57.310Z,-1.05
2019-01-25T07:25:54.879Z,-1.16
2019-01-25T07:27:47.763Z,-1.07
2019-01-25T07:28:47.770Z,-1.12
2019-01-25T07:30:40.661Z,-1.17
2019-01-25T07:31:40.669Z,-1.15
2019-01-25T07:33:33.554Z,-1.10
2019-01-25T07:34:33.552Z,-1.22
2019-01-25T07:36:26.435Z,-1.22
2019-01-25T07:37:26.442Z,-1.17
2019-01-25T07:39:19.330Z,-1.13
2019-01-25T07:40:19.330Z,-1.15
2019-01-25T07:42:12.213Z,-1.07
2019-01-25T07:43:12.225Z,-1.13
2019-01-25T07:45:05.110Z,-1.19
2019-01-25T07:46:05.145Z,-1.13
2019-01-25T07:47:57.992Z,-1.12
2019-01-25T07:48:57.998Z,-1.15
2019-01-25T07:50:50.893Z,-1.16
2019-01-25T07:51:50.888Z,-1.12
2019-01-25T07:53:43.788Z,-1.23
2019-01-25T07:54:43.782Z,-1.28
2019-01-25T07:56:36.676Z,-1.12
2019-01-25T07:57:36.701Z,-1.27
2019-01-25T07:59:29.604Z,-1.25
2019-01-25T08:00:29.566Z,-1.23
2019-01-25T08:02:22.453Z,-1.25
2019-01-25T08:03:22.469Z,-1.23
2019-01-25T08:05:15.345Z,-1.28
2019-01-25T08:06:15.344Z,-1.30
2019-01-25T08:08:08.227Z,-1.22
2019-01-25T08:09:08.234Z,-1.27
2019-01-25T08:11:01.129Z,-1.33
2019-01-25T08:12:07.215Z,-1.40
2019-01-25T08:13:54.017Z,-1.34
2019-01-25T08:14:54.017Z,-1.28
2019-01-25T08:16:46.911Z,-1.23
2019-01-25T08:17:46.908Z,-1.23
2019-01-25T08:19:39.818Z,-1.23
2019-01-25T08:20:39.817Z,-1.22
2019-01-25T08:22:32.692Z,-1.22
2019-01-25T08:23:32.688Z,-1.27
2019-01-25T08:25:25.621Z,-1.23
2019-01-25T08:26:25.593Z,-1.25
2019-01-25T08:28:18.461Z,-1.23
2019-01-25T08:29:18.594Z,-1.23
2019-01-25T08:31:11.378Z,-1.27
2019-01-25T08:32:11.364Z,-1.27
2019-01-25T08:34:04.253Z,-1.20
2019-01-25T08:35:04.261Z,-1.17
2019-01-25T08:36:57.143Z,-1.25
2019-01-25T08:37:57.141Z,-1.27
2019-01-25T08:39:50.041Z,-1.31
2019-01-25T08:40:50.032Z,-1.27
2019-01-25T08:42:42.923Z,-1.34
2019-01-25T08:43:42.936Z,-1.31
2019-01-25T08:45:35.822Z,-1.16
2019-01-25T08:46:35.823Z,-1.25
2019-01-25T08:48:29.212Z,-1.28
2019-01-25T08:49:28.795Z,-1.30
2019-01-25T08:51:21.712Z,-1.33
2019-01-25T08:52:21.725Z,-1.35
2019-01-25T08:54:14.591Z,-1.37
2019-01-25T08:55:14.650Z,-1.34
2019-01-25T08:57:07.498Z,-1.31
2019-01-25T08:58:07.486Z,-1.30
2019-01-25T09:00:00.607Z,-1.20
2019-01-25T09:01:00.376Z,-1.16
2019-01-25T09:02:53.268Z,-1.28
2019-01-25T09:03:53.266Z,-1.16
2019-01-25T09:05:46.152Z,-1.13
2019-01-25T09:06:46.156Z,-1.17
2019-01-25T09:08:39.047Z,-0.95
2019-01-25T09:09:39.045Z,-1.02
2019-01-25T09:11:31.940Z,-1.10
2019-01-25T09:12:31.937Z,-1.10
2019-01-25T09:14:24.820Z,-1.12
2019-01-25T09:15:24.826Z,-1.09
2019-01-25T09:17:17.720Z,-1.20
2019-01-25T09:18:17.751Z,-1.27
2019-01-25T09:20:14.539Z,-1.19
2019-01-25T09:21:10.609Z,-1.19
2019-01-25T09:23:03.544Z,-1.13
2019-01-25T09:24:03.497Z,-1.10
2019-01-25T09:26:00.918Z,-1.23
2019-01-25T09:26:56.533Z,-1.25
2019-01-25T09:28:49.428Z,-1.34
2019-01-25T09:29:49.429Z,-1.37
2019-01-25T09:31:42.311Z,-1.20
2019-01-25T09:32:43.783Z,-1.27
2019-01-25T09:34:35.210Z,-1.12
2019-01-25T09:35:35.209Z,-1.09
2019-01-25T09:37:28.099Z,-0.99
2019-01-25T09:38:28.098Z,-0.92
2019-01-25T09:40:20.985Z,-0.94
2019-01-25T09:41:20.994Z,-0.91
2019-01-25T09:43:13.894Z,-0.92
2019-01-25T09:44:13.884Z,-0.94
2019-01-25T09:46:06.767Z,-0.89
2019-01-25T09:47:06.775Z,-0.94
2019-01-25T09:48:59.671Z,-0.97
2019-01-25T09:49:59.666Z,-1.05
2019-01-25T09:51:52.551Z,-0.89
2019-01-25T09:52:52.559Z,-0.91
2019-01-25T09:54:45.453Z,-0.86
2019-01-25T09:55:45.449Z,-0.85
2019-01-25T09:57:38.335Z,-0.80
2019-01-25T09:58:38.342Z,-0.70
2019-01-25T10:00:31.243Z,-0.62
2019-01-25T10:01:31.238Z,-0.58
2019-01-25T10:03:24.130Z,-0.37
2019-01-25T10:04:24.128Z,-0.28
2019-01-25T10:06:17.012Z,-0.31
2019-01-25T10:07:17.020Z,-0.21
2019-01-25T10:09:09.929Z,-0.11
2019-01-25T10:10:09.919Z,-0.18
2019-01-25T10:12:02.804Z,-0.10
2019-01-25T10:13:02.812Z,0.00
2019-01-25T10:14:55.707Z,0.04
2019-01-25T10:15:55.708Z,0.13
2019-01-25T10:17:48.594Z,0.33
2019-01-25T10:18:48.599Z,0.39
2019-01-25T10:20:41.498Z,0.41
2019-01-25T10:21:41.492Z,0.42
2019-01-25T10:23:39.053Z,0.58
2019-01-25T10:24:34.386Z,0.51
2019-01-25T10:26:27.306Z,0.51
2019-01-25T10:27:27.308Z,0.60
2019-01-25T10:29:20.204Z,0.68
2019-01-25T10:30:20.205Z,0.70
2019-01-25T10:32:13.091Z,0.72
2019-01-25T10:33:13.174Z,0.72
2019-01-25T10:35:06.071Z,0.68
2019-01-25T10:36:06.023Z,0.61
2019-01-25T10:37:58.911Z,0.69
2019-01-25T10:38:58.917Z,0.66
2019-01-25T10:40:51.811Z,0.70
2019-01-25T10:41:51.812Z,0.65
2019-01-25T10:43:44.700Z,0.72
2019-01-25T10:44:44.708Z,0.66
2019-01-25T10:46:37.610Z,0.55
2019-01-25T10:47:37.608Z,0.57
2019-01-25T10:49:30.526Z,0.72
2019-01-25T10:50:30.503Z,0.76
2019-01-25T10:52:23.392Z,0.55
2019-01-25T10:53:23.399Z,0.73
2019-01-25T10:55:16.295Z,0.58
2019-01-25T10:56:16.296Z,0.66
2019-01-25T10:58:09.182Z,0.47
2019-01-25T10:59:09.189Z,0.46
2019-01-25T11:01:02.117Z,0.46
2019-01-25T11:02:02.089Z,0.46
2019-01-25T11:03:54.977Z,0.41
2019-01-25T11:04:54.985Z,0.53
2019-01-25T11:06:47.879Z,0.60
2019-01-25T11:07:47.881Z,0.53
2019-01-25T11:09:40.770Z,0.72
2019-01-25T11:10:40.780Z,0.70
2019-01-25T11:12:33.673Z,0.72
2019-01-25T11:13:33.677Z,0.68
2019-01-25T11:15:26.576Z,0.75
2019-01-25T11:16:26.574Z,0.70
2019-01-25T11:18:19.467Z,0.76
2019-01-25T11:19:19.472Z,0.75
2019-01-25T11:21:12.367Z,0.93
2019-01-25T11:22:12.370Z,0.87
2019-01-25T11:24:07.856Z,0.97
2019-01-25T11:25:05.266Z,0.94
2019-01-25T11:27:00.395Z,1.05
2019-01-25T11:27:58.164Z,1.22
2019-01-25T11:29:51.052Z,1.11
2019-01-25T11:30:51.059Z,1.22
2019-01-25T11:32:43.959Z,1.26
2019-01-25T11:33:43.959Z,1.24
2019-01-25T11:35:36.848Z,1.22
2019-01-25T11:36:36.857Z,1.30
2019-01-25T11:38:29.764Z,1.33
2019-01-25T11:39:29.763Z,1.36
2019-01-25T11:41:22.660Z,1.48
2019-01-25T11:42:22.657Z,1.41
2019-01-25T11:44:15.548Z,1.45
2019-01-25T11:45:15.562Z,1.41
2019-01-25T11:47:08.451Z,1.33
2019-01-25T11:48:08.452Z,1.26
2019-01-25T11:50:01.343Z,1.26
2019-01-25T11:51:01.351Z,1.20
2019-01-25T11:52:54.250Z,1.14
2019-01-25T11:53:54.249Z,1.14
2019-01-25T11:55:47.141Z,0.88
2019-01-25T11:56:47.149Z,0.76
2019-01-25T11:58:40.045Z,0.73
2019-01-25T11:59:40.045Z,0.78
2019-01-25T12:01:32.936Z,0.86
2019-01-25T12:02:32.946Z,0.86
2019-01-25T12:04:26.017Z,1.04
2019-01-25T12:05:25.843Z,1.08
2019-01-25T12:07:18.753Z,1.23
2019-01-25T12:08:18.753Z,1.20
2019-01-25T12:10:11.641Z,1.20
2019-01-25T12:11:11.651Z,1.22
2019-01-25T12:13:04.546Z,1.08
2019-01-25T12:14:04.549Z,1.05
2019-01-25T12:15:57.439Z,1.05
2019-01-25T12:16:57.443Z,1.05
2019-01-25T12:18:50.340Z,1.04
2019-01-25T12:19:50.340Z,1.11
2019-01-25T12:21:43.229Z,1.26
2019-01-25T12:22:43.238Z,1.26
2019-01-25T12:24:36.135Z,1.22
2019-01-25T12:25:36.134Z,1.22
2019-01-25T12:27:29.025Z,1.26
2019-01-25T12:28:29.026Z,1.24
2019-01-25T12:30:21.916Z,1.47
2019-01-25T12:31:21.926Z,1.30
2019-01-25T12:33:14.825Z,1.41
2019-01-25T12:34:14.825Z,1.37
2019-01-25T12:36:07.713Z,1.34
2019-01-25T12:37:07.723Z,1.36
2019-01-25T12:39:00.618Z,1.47
2019-01-25T12:40:00.618Z,1.52
2019-01-25T12:41:53.511Z,1.52
2019-01-25T12:42:53.518Z,1.50
2019-01-25T12:44:46.418Z,1.59
2019-01-25T12:45:50.194Z,1.54
2019-01-25T12:47:39.313Z,1.60
2019-01-25T12:48:39.317Z,1.62
2019-01-25T12:50:32.202Z,1.65
2019-01-25T12:51:32.211Z,1.62
2019-01-25T12:53:25.115Z,1.63
2019-01-25T12:54:25.110Z,1.68
2019-01-25T12:56:17.999Z,1.62
2019-01-25T12:57:18.010Z,1.65
2019-01-25T12:59:10.907Z,1.76
2019-01-25T13:00:10.909Z,1.62
2019-01-25T13:02:03.797Z,1.79
2019-01-25T13:03:03.808Z,1.80
2019-01-25T13:04:56.701Z,1.77
2019-01-25T13:05:56.702Z,1.73
2019-01-25T13:07:49.629Z,1.76
2019-01-25T13:08:49.599Z,1.77
2019-01-25T13:10:42.490Z,1.68
2019-01-25T13:11:42.500Z,1.63
2019-01-25T13:13:35.394Z,1.69
2019-01-25T13:14:35.397Z,1.59
2019-01-25T13:16:28.291Z,1.65
2019-01-25T13:17:28.299Z,1.65
2019-01-25T13:19:21.192Z,1.63
2019-01-25T13:20:21.201Z,1.66
2019-01-25T13:22:14.104Z,1.72
2019-01-25T13:23:14.108Z,1.68
2019-01-25T13:25:06.993Z,1.70
2019-01-25T13:26:06.993Z,1.76
2019-01-25T13:27:59.882Z,1.73
2019-01-25T13:28:59.889Z,1.84
2019-01-25T13:30:52.784Z,1.86
2019-01-25T13:31:52.903Z,1.80
2019-01-25T13:33:45.682Z,1.69
2019-01-25T13:34:45.686Z,1.69
2019-01-25T13:36:38.574Z,1.73
2019-01-25T13:37:38.586Z,1.76
2019-01-25T13:39:31.484Z,1.69
2019-01-25T13:40:31.484Z,1.63
2019-01-25T13:42:24.372Z,1.77
2019-01-25T13:43:24.383Z,1.80
2019-01-25T13:45:17.281Z,1.76
2019-01-25T13:46:17.277Z,1.66
2019-01-25T13:48:10.164Z,1.79
2019-01-25T13:49:10.174Z,1.87
2019-01-25T13:51:03.076Z,1.86
2019-01-25T13:52:03.075Z,1.81
2019-01-25T13:53:55.969Z,1.86
2019-01-25T13:54:55.974Z,1.79
2019-01-25T13:56:48.872Z,1.81
2019-01-25T13:57:48.874Z,1.79
2019-01-25T13:59:41.771Z,1.90
2019-01-25T14:00:41.779Z,1.81
2019-01-25T14:02:34.676Z,1.80
2019-01-25T14:03:34.669Z,1.87
2019-01-25T14:05:27.568Z,1.91
2019-01-25T14:06:27.565Z,1.86
2019-01-25T14:08:20.457Z,1.88
2019-01-25T14:09:20.465Z,1.90
2019-01-25T14:11:13.358Z,1.90
2019-01-25T14:12:13.360Z,1.98
2019-01-25T14:14:06.255Z,1.90
2019-01-25T14:15:06.259Z,1.91
2019-01-25T14:16:59.159Z,1.90
2019-01-25T14:17:59.157Z,2.05
2019-01-25T14:19:52.042Z,1.87
2019-01-25T14:20:52.051Z,1.93
2019-01-25T14:22:44.946Z,1.90
2019-01-25T14:23:44.948Z,2.02
2019-01-25T14:25:37.844Z,2.06
2019-01-25T14:26:37.846Z,2.06
2019-01-25T14:28:30.732Z,2.00
2019-01-25T14:29:30.742Z,1.99
2019-01-25T14:31:23.639Z,2.03
2019-01-25T14:32:23.643Z,2.10
2019-01-25T14:34:16.530Z,2.06
2019-01-25T14:35:16.537Z,2.03
2019-01-25T14:37:09.436Z,2.16
2019-01-25T14:38:09.437Z,2.06
2019-01-25T14:40:02.325Z,2.18
2019-01-25T14:41:02.341Z,2.12
2019-01-25T14:42:55.232Z,2.18
2019-01-25T14:43:55.235Z,2.17
2019-01-25T14:45:48.301Z,2.07
2019-01-25T14:46:48.133Z,2.07
2019-01-25T14:48:41.020Z,2.09
2019-01-25T14:49:41.031Z,2.17
2019-01-25T14:51:33.929Z,2.16
2019-01-25T14:52:33.928Z,2.14
2019-01-25T14:54:26.821Z,2.25
2019-01-25T14:55:26.831Z,2.24
2019-01-25T14:57:19.727Z,2.25
2019-01-25T14:58:19.729Z,2.25
2019-01-25T15:00:12.639Z,2.28
2019-01-25T15:01:12.628Z,2.34
2019-01-25T15:03:05.531Z,2.39
2019-01-25T15:04:05.529Z,2.27
2019-01-25T15:05:58.459Z,2.41
2019-01-25T15:06:58.495Z,2.36
2019-01-25T15:08:51.313Z,2.45
2019-01-25T15:09:51.324Z,2.34
2019-01-25T15:11:44.223Z,2.31
2019-01-25T15:12:44.224Z,2.43
2019-01-25T15:14:37.113Z,2.46
2019-01-25T15:15:37.121Z,2.45
2019-01-25T15:17:30.021Z,2.42
2019-01-25T15:18:30.025Z,2.45
2019-01-25T15:20:22.912Z,2.41
2019-01-25T15:21:22.923Z,2.45
2019-01-25T15:23:15.819Z,2.42
2019-01-25T15:24:15.820Z,2.45
2019-01-25T15:26:08.718Z,2.39
2019-01-25T15:27:08.720Z,2.42
2019-01-25T15:29:01.608Z,2.27
2019-01-25T15:30:01.619Z,2.27
2019-01-25T15:31:55.094Z,2.39
2019-01-25T15:32:54.515Z,2.30
2019-01-25T15:34:47.404Z,2.36
2019-01-25T15:35:47.414Z,2.30
2019-01-25T15:37:40.311Z,2.30
2019-01-25T15:38:40.311Z,2.21
2019-01-25T15:40:33.200Z,2.14
2019-01-25T15:41:33.209Z,2.12
2019-01-25T15:43:26.107Z,2.14
2019-01-25T15:44:26.104Z,1.99
2019-01-25T15:46:19.001Z,2.12
2019-01-25T15:47:19.002Z,2.02
2019-01-25T15:49:11.894Z,2.07
2019-01-25T15:50:11.900Z,2.12
2019-01-25T15:52:04.798Z,2.14
2019-01-25T15:53:04.800Z,2.16
2019-01-25T15:54:57.684Z,2.20
2019-01-25T15:55:57.692Z,2.21
2019-01-25T15:57:50.588Z,2.10
2019-01-25T15:58:50.589Z,2.16
2019-01-25T16:00:43.478Z,2.10
2019-01-25T16:01:43.485Z,2.09
2019-01-25T16:03:36.382Z,2.12
2019-01-25T16:04:36.389Z,2.10
2019-01-25T16:06:29.291Z,2.17
2019-01-25T16:07:29.282Z,2.14
2019-01-25T16:09:23.671Z,2.12
2019-01-25T16:10:22.183Z,2.18
2019-01-25T16:12:15.087Z,2.10
2019-01-25T16:13:15.082Z,2.14
2019-01-25T16:15:07.970Z,2.16
2019-01-25T16:16:07.979Z,2.09
2019-01-25T16:18:00.905Z,2.17
2019-01-25T16:19:00.878Z,2.14
2019-01-25T16:20:53.766Z,2.12
2019-01-25T16:21:53.776Z,2.07
2019-01-25T16:23:46.673Z,2.17
2019-01-25T16:24:46.675Z,2.20
2019-01-25T16:26:39.571Z,2.28
2019-01-25T16:27:39.573Z,2.28
2019-01-25T16:29:32.485Z,2.35
2019-01-25T16:30:32.471Z,2.36
2019-01-25T16:32:25.367Z,2.39
2019-01-25T16:33:25.366Z,2.38
2019-01-25T16:35:18.253Z,2.43
2019-01-25T16:36:18.264Z,2.38
2019-01-25T16:38:11.160Z,2.36
2019-01-25T16:39:11.163Z,2.39
2019-01-25T16:41:04.054Z,2.39
2019-01-25T16:42:04.059Z,2.52
2019-01-25T16:43:56.959Z,2.48
2019-01-25T16:44:56.959Z,2.46
2019-01-25T16:46:49.857Z,2.48
2019-01-25T16:47:49.859Z,2.42
2019-01-25T16:49:42.753Z,2.46
2019-01-25T16:50:42.757Z,2.59
2019-01-25T16:52:35.658Z,2.49
2019-01-25T16:53:35.656Z,2.48
2019-01-25T16:55:30.101Z,2.45
2019-01-25T16:56:28.558Z,2.48
2019-01-25T16:58:21.458Z,2.53
2019-01-25T16:59:21.458Z,2.49
2019-01-25T17:01:14.347Z,2.45
2019-01-25T17:02:14.359Z,2.48
2019-01-25T17:04:07.256Z,2.48
2019-01-25T17:05:07.258Z,2.53
2019-01-25T17:07:00.655Z,2.46
2019-01-25T17:08:00.158Z,2.53
2019-01-25T17:09:53.045Z,2.46
2019-01-25T17:10:53.053Z,2.52
2019-01-25T17:12:45.950Z,2.57
2019-01-25T17:13:45.953Z,2.52
2019-01-25T17:15:38.843Z,2.49
2019-01-25T17:16:38.851Z,2.46
2019-01-25T17:18:31.752Z,2.52
2019-01-25T17:19:31.748Z,2.46
2019-01-25T17:21:24.636Z,2.48
2019-01-25T17:22:24.647Z,2.52
2019-01-25T17:24:17.545Z,2.52
2019-01-25T17:25:17.551Z,2.54
2019-01-25T17:27:10.488Z,2.49
2019-01-25T17:28:10.606Z,2.53
2019-01-25T17:30:03.378Z,2.45
2019-01-25T17:31:03.387Z,2.49
2019-01-25T17:32:56.288Z,2.48
2019-01-25T17:33:56.286Z,2.45
2019-01-25T17:35:49.173Z,2.53
2019-01-25T17:36:49.183Z,2.48
2019-01-25T17:38:42.081Z,2.46
2019-01-25T17:39:42.081Z,2.46
2019-01-25T17:41:34.977Z,2.49
2019-01-25T17:42:34.983Z,2.46
2019-01-25T17:44:27.884Z,2.57
2019-01-25T17:45:27.885Z,2.53
2019-01-25T17:47:20.789Z,2.52
2019-01-25T17:48:20.783Z,2.52
2019-01-25T17:50:13.674Z,2.49
2019-01-25T17:51:13.683Z,2.59
2019-01-25T17:53:06.578Z,2.49
2019-01-25T17:54:06.581Z,2.52
2019-01-25T17:55:59.468Z,2.45
2019-01-25T17:56:59.478Z,2.48
2019-01-25T17:58:52.388Z,2.56
2019-01-25T17:59:52.379Z,2.46
2019-01-25T18:01:45.269Z,2.43
2019-01-25T18:02:45.279Z,2.54
2019-01-25T18:04:38.171Z,2.52
2019-01-25T18:05:38.176Z,2.49
2019-01-25T18:07:31.070Z,2.61
2019-01-25T18:08:31.070Z,2.56
2019-01-25T18:10:23.957Z,2.57
2019-01-25T18:11:23.972Z,2.60
2019-01-25T18:13:16.863Z,2.61
2019-01-25T18:14:16.865Z,2.63
2019-01-25T18:16:09.757Z,2.64
2019-01-25T18:17:09.769Z,2.53
2019-01-25T18:19:02.699Z,2.56
2019-01-25T18:20:02.663Z,2.59
2019-01-25T18:21:55.554Z,2.71
2019-01-25T18:22:55.562Z,2.60
2019-01-25T18:24:48.462Z,2.59
2019-01-25T18:25:48.461Z,2.59
2019-01-25T18:27:41.359Z,2.64
2019-01-25T18:28:41.362Z,2.59
2019-01-25T18:30:34.247Z,2.67
2019-01-25T18:31:34.257Z,2.69
2019-01-25T18:33:27.155Z,2.63
2019-01-25T18:34:27.155Z,2.63
2019-01-25T18:36:20.046Z,2.74
2019-01-25T18:37:20.055Z,2.71
2019-01-25T18:39:12.955Z,2.69
2019-01-25T18:40:12.953Z,2.60
2019-01-25T18:42:05.849Z,2.59
2019-01-25T18:43:05.853Z,2.54
2019-01-25T18:44:58.747Z,2.56
2019-01-25T18:45:58.770Z,2.53
2019-01-25T18:47:51.643Z,2.54
2019-01-25T18:48:51.647Z,2.56
2019-01-25T18:50:44.534Z,2.60